Time;durP1;ratioP1;P1;durP2;ratioP2;P2;SDS_P1;SDS_P2;PMS_P1;PMS_P2;Temp;Humidity;BMP_temperature;BMP_pressure;BME280_temperature;BME280_humidity;BME280_pressure;Samples;Min_cycle;Max_cycle;Signal;HPM_P1;HPM_P2
2022/09/27 00:01:59;;;;;;;11.25;6.50;;;;;;;;;;5040096;28;20393;-76
2022/09/27 00:04:25;;;;;;;11.70;6.90;;;;;;;;;;5023660;28;20098;-76
2022/09/27 00:06:51;;;;;;;12.57;7.03;;;;;;;;;;5035376;28;20029;-76
2022/09/27 00:09:16;;;;;;;11.77;6.38;;;;;;;;;;5022102;28;20041;-75
2022/09/27 00:11:42;;;;;;;10.95;6.18;;;;;;;;;;5035141;28;20036;-76
2022/09/27 00:14:11;;;;;;;9.75;6.35;;;;;;;;;;5041743;28;20043;-76
2022/09/27 00:16:40;;;;;;;10.68;6.50;;;;;;;;;;5040210;28;20033;-76
2022/09/27 00:19:12;;;;;;;7.75;5.30;;;;;;;;;;5044280;28;20133;-77
2022/09/27 00:21:38;;;;;;;9.50;5.03;;;;;;;;;;5021883;28;20118;-76
2022/09/27 00:24:04;;;;;;;8.18;4.75;;;;;;;;;;5042450;28;20096;-76
2022/09/27 00:26:30;;;;;;;8.43;5.05;;;;;;;;;;5043282;28;20037;-76
2022/09/27 00:28:56;;;;;;;6.93;5.15;;;;;;;;;;5037793;28;20021;-76
2022/09/27 00:31:24;;;;;;;8.00;4.57;;;;;;;;;;5044628;28;20107;-76
2022/09/27 00:33:52;;;;;;;8.30;5.30;;;;;;;;;;5037537;28;20044;-76
2022/09/27 00:36:20;;;;;;;7.20;4.85;;;;;;;;;;5033318;28;20041;-75
2022/09/27 00:38:46;;;;;;;7.28;4.93;;;;;;;;;;5033014;28;20053;-77
2022/09/27 00:41:24;;;;;;;5.78;4.28;;;;;;;;;;5046195;28;20086;-77
2022/09/27 00:43:54;;;;;;;8.90;4.68;;;;;;;;;;5051138;28;20047;-77
2022/09/27 00:46:26;;;;;;;8.35;5.20;;;;;;;;;;5042506;28;20524;-77
2022/09/27 00:49:02;;;;;;;7.03;5.00;;;;;;;;;;5040190;28;20087;-77
2022/09/27 00:51:29;;;;;;;9.27;5.20;;;;;;;;;;5042905;28;20853;-76
2022/09/27 00:53:58;;;;;;;11.05;5.00;;;;;;;;;;5023310;28;20033;-76
2022/09/27 00:56:27;;;;;;;6.90;5.03;;;;;;;;;;5043288;28;20035;-76
2022/09/27 00:59:02;;;;;;;10.60;4.95;;;;;;;;;;5033798;28;20045;-76
2022/09/27 01:01:29;;;;;;;6.80;4.05;;;;;;;;;;5041138;28;20037;-77
2022/09/27 01:04:11;;;;;;;8.15;4.40;;;;;;;;;;5042065;28;20043;-77
2022/09/27 01:06:37;;;;;;;;;;;;;;;;;;5046747;28;20033;-77
2022/09/27 01:09:05;;;;;;;15.35;4.88;;;;;;;;;;5044493;28;19952;-78
2022/09/27 01:11:45;;;;;;;9.73;5.65;;;;;;;;;;5051548;28;20037;-76
2022/09/27 01:14:35;;;;;;;8.25;4.85;;;;;;;;;;5047416;28;20124;-77
2022/09/27 01:17:26;;;;;;;8.25;4.38;;;;;;;;;;5051398;28;20036;-77
2022/09/27 01:20:19;;;;;;;7.37;4.03;;;;;;;;;;5039016;28;20025;-76
2022/09/27 01:22:53;;;;;;;5.45;3.72;;;;;;;;;;5052147;28;20037;-76
2022/09/27 01:26:04;;;;;;;5.72;4.22;;;;;;;;;;5021648;28;20071;-76
2022/09/27 01:28:57;;;;;;;6.85;4.28;;;;;;;;;;5030903;28;20132;-77
2022/09/27 01:31:33;;;;;;;8.50;5.00;;;;;;;;;;5038991;28;20106;-76
2022/09/27 01:34:10;;;;;;;9.50;4.20;;;;;;;;;;5041990;28;20529;-76
2022/09/27 01:36:50;;;;;;;5.70;3.92;;;;;;;;;;5037584;28;20029;-76
2022/09/27 01:39:43;;;;;;;7.72;3.75;;;;;;;;;;5042201;28;20041;-76
2022/09/27 01:42:45;;;;;;;8.52;4.28;;;;;;;;;;5036856;28;20033;-78
2022/09/27 01:45:32;;;;;;;8.00;3.95;;;;;;;;;;5050021;28;20041;-77
2022/09/27 01:48:22;;;;;;;6.57;3.85;;;;;;;;;;5044015;28;20036;-77
2022/09/27 01:51:07;;;;;;;7.13;4.43;;;;;;;;;;5034502;28;20090;-77
2022/09/27 01:53:35;;;;;;;8.48;5.35;;;;;;;;;;5036344;28;20033;-76
2022/09/27 01:56:05;;;;;;;9.75;5.00;;;;;;;;;;5042576;28;20087;-77
2022/09/27 01:58:48;;;;;;;7.00;4.22;;;;;;;;;;5036063;28;20037;-76
2022/09/27 02:01:17;;;;;;;8.38;4.60;;;;;;;;;;5012663;28;20032;-78
2022/09/27 02:03:48;;;;;;;5.72;4.15;;;;;;;;;;5039305;28;20750;-77
2022/09/27 02:06:19;;;;;;;5.20;4.25;;;;;;;;;;5041648;28;20103;-77
2022/09/27 02:09:02;;;;;;;11.13;4.28;;;;;;;;;;5042570;28;20163;-77
2022/09/27 02:11:28;;;;;;;6.68;4.15;;;;;;;;;;5023962;28;20035;-76
2022/09/27 02:14:01;;;;;;;8.32;4.50;;;;;;;;;;5037304;28;20025;-77
2022/09/27 02:16:42;;;;;;;5.47;4.25;;;;;;;;;;5041602;28;20035;-77
2022/09/27 02:20:11;;;;;;;6.43;4.63;;;;;;;;;;5041251;28;20017;-77
2022/09/27 02:23:03;;;;;;;6.00;3.60;;;;;;;;;;4971745;28;20030;-76
2022/09/27 02:25:43;;;;;;;5.90;3.90;;;;;;;;;;4985263;28;20045;-76
2022/09/27 02:28:09;;;;;;;8.30;3.42;;;;;;;;;;5021063;28;20055;-76
2022/09/27 02:30:35;;;;;;;6.38;3.90;;;;;;;;;;5042408;28;20056;-77
2022/09/27 02:33:01;;;;;;;6.45;3.75;;;;;;;;;;5043112;28;20029;-77
2022/09/27 02:35:33;;;;;;;8.05;4.30;;;;;;;;;;5038015;28;20036;-77
2022/09/27 02:37:58;;;;;;;4.97;3.20;;;;;;;;;;5043388;28;20106;-76
2022/09/27 02:40:29;;;;;;;5.75;3.42;;;;;;;;;;5036090;28;20140;-77
2022/09/27 02:42:56;;;;;;;5.10;3.70;;;;;;;;;;5048029;28;20826;-77
2022/09/27 02:45:23;;;;;;;6.50;3.83;;;;;;;;;;5022538;28;20464;-77
2022/09/27 02:47:51;;;;;;;6.72;4.05;;;;;;;;;;5049263;28;20028;-76
2022/09/27 02:50:49;;;;;;;6.85;3.45;;;;;;;;;;5048800;28;20025;-77
2022/09/27 02:53:21;;;;;;;10.68;3.88;;;;;;;;;;5035660;28;20025;-76
2022/09/27 02:55:55;;;;;;;5.38;4.13;;;;;;;;;;5039412;28;20036;-77
2022/09/27 02:58:44;;;;;;;6.90;3.88;;;;;;;;;;5036394;28;20025;-76
2022/09/27 03:01:30;;;;;;;7.25;3.95;;;;;;;;;;5041716;28;20035;-76
2022/09/27 03:04:22;;;;;;;6.57;4.03;;;;;;;;;;5036455;28;20044;-76
2022/09/27 03:06:50;;;;;;;5.40;3.72;;;;;;;;;;5034091;28;20064;-75
2022/09/27 03:09:26;;;;;;;6.40;4.10;;;;;;;;;;5040380;28;20029;-75
2022/09/27 03:11:52;;;;;;;11.73;4.50;;;;;;;;;;5034748;28;20072;-76
2022/09/27 03:14:17;;;;;;;7.63;3.78;;;;;;;;;;5035126;28;20531;-76
2022/09/27 03:16:43;;;;;;;6.25;3.53;;;;;;;;;;5034178;28;20025;-77
2022/09/27 03:19:09;;;;;;;5.28;3.70;;;;;;;;;;5034908;28;20052;-75
2022/09/27 03:21:34;;;;;;;5.97;4.03;;;;;;;;;;5041930;28;20037;-76
2022/09/27 03:24:01;;;;;;;6.15;3.42;;;;;;;;;;5039029;28;20135;-76
2022/09/27 03:26:27;;;;;;;6.13;3.47;;;;;;;;;;5033967;28;20121;-77
2022/09/27 03:28:53;;;;;;;6.05;3.95;;;;;;;;;;5040747;28;20060;-76
2022/09/27 03:31:19;;;;;;;13.85;4.93;;;;;;;;;;5018281;28;20098;-75
2022/09/27 03:33:44;;;;;;;5.40;3.00;;;;;;;;;;5018217;28;20029;-77
2022/09/27 03:36:10;;;;;;;4.75;3.22;;;;;;;;;;5040116;28;20627;-77
2022/09/27 03:38:36;;;;;;;5.50;3.10;;;;;;;;;;5035563;28;20763;-76
2022/09/27 03:41:02;;;;;;;7.78;3.50;;;;;;;;;;5030749;28;20117;-77
2022/09/27 03:43:28;;;;;;;6.78;3.13;;;;;;;;;;5040971;28;20123;-77
2022/09/27 03:45:53;;;;;;;5.95;3.20;;;;;;;;;;5035712;28;20029;-76
2022/09/27 03:48:20;;;;;;;12.65;3.17;;;;;;;;;;5042268;28;20071;-77
2022/09/27 03:50:45;;;;;;;4.10;3.15;;;;;;;;;;5044888;28;20489;-77
2022/09/27 03:53:11;;;;;;;6.05;3.80;;;;;;;;;;5046086;28;20083;-77
2022/09/27 03:55:36;;;;;;;8.63;3.45;;;;;;;;;;5039381;28;20025;-76
2022/09/27 03:58:02;;;;;;;5.50;2.97;;;;;;;;;;5043178;28;20075;-76
2022/09/27 04:00:28;;;;;;;6.28;3.55;;;;;;;;;;5039403;28;20116;-76
2022/09/27 04:02:53;;;;;;;6.07;3.45;;;;;;;;;;5044420;28;20025;-77
2022/09/27 04:05:19;;;;;;;4.35;3.17;;;;;;;;;;5040003;28;20052;-77
2022/09/27 04:07:48;;;;;;;5.35;3.17;;;;;;;;;;5039252;28;20026;-77
2022/09/27 04:10:14;;;;;;;5.68;3.17;;;;;;;;;;5044034;28;20127;-77
2022/09/27 04:12:40;;;;;;;5.45;3.10;;;;;;;;;;5044307;28;20075;-76
2022/09/27 04:15:07;;;;;;;4.88;3.40;;;;;;;;;;5023168;28;20721;-77
2022/09/27 04:17:33;;;;;;;5.25;3.47;;;;;;;;;;5041817;28;20040;-77
2022/09/27 04:19:58;;;;;;;7.10;3.17;;;;;;;;;;5045810;28;20024;-77
2022/09/27 04:22:23;;;;;;;4.45;2.92;;;;;;;;;;5040499;28;20025;-77
2022/09/27 04:24:49;;;;;;;5.95;3.40;;;;;;;;;;5039873;28;20030;-77
2022/09/27 04:27:16;;;;;;;4.47;2.80;;;;;;;;;;5042108;28;20520;-77
2022/09/27 04:29:44;;;;;;;7.72;3.25;;;;;;;;;;5045039;28;20017;-77
2022/09/27 04:32:13;;;;;;;4.75;2.60;;;;;;;;;;5024030;28;20136;-77
2022/09/27 04:37:23;;;;;;;7.00;3.28;;;;;;;;;;5047288;28;20052;-77
2022/09/27 04:39:48;;;;;;;3.95;2.58;;;;;;;;;;5045619;28;20542;-77
2022/09/27 04:42:15;;;;;;;6.97;2.65;;;;;;;;;;5045192;28;20028;-76
2022/09/27 04:44:40;;;;;;;4.38;3.00;;;;;;;;;;5044744;28;20037;-77
2022/09/27 04:47:06;;;;;;;8.52;3.00;;;;;;;;;;5043804;28;20374;-76
2022/09/27 04:49:31;;;;;;;6.38;3.22;;;;;;;;;;5038438;28;20042;-77
2022/09/27 04:51:57;;;;;;;6.65;3.28;;;;;;;;;;5038521;28;20385;-76
2022/09/27 04:54:23;;;;;;;6.03;3.30;;;;;;;;;;5021058;28;20040;-77
2022/09/27 04:56:48;;;;;;;5.45;2.95;;;;;;;;;;5044554;28;20481;-77
2022/09/27 04:59:14;;;;;;;4.00;2.78;;;;;;;;;;5036845;28;20442;-77
2022/09/27 05:01:40;;;;;;;4.32;2.70;;;;;;;;;;5043920;28;20544;-77
2022/09/27 05:04:05;;;;;;;5.78;3.20;;;;;;;;;;5046393;28;20370;-74
2022/09/27 05:06:31;;;;;;;5.82;2.90;;;;;;;;;;5016808;28;20346;-76
2022/09/27 05:08:57;;;;;;;4.00;2.80;;;;;;;;;;5041591;28;20053;-77
2022/09/27 05:11:23;;;;;;;3.22;2.30;;;;;;;;;;5024575;28;20681;-77
2022/09/27 05:13:49;;;;;;;4.28;2.45;;;;;;;;;;5049063;28;20551;-76
2022/09/27 05:16:14;;;;;;;4.43;2.78;;;;;;;;;;5044116;28;20155;-76
2022/09/27 05:18:41;;;;;;;3.42;2.60;;;;;;;;;;5039518;28;20385;-75
2022/09/27 05:21:09;;;;;;;6.32;2.58;;;;;;;;;;5040597;28;20086;-74
2022/09/27 05:23:36;;;;;;;5.10;2.33;;;;;;;;;;5027251;28;20033;-75
2022/09/27 05:26:05;;;;;;;5.60;2.78;;;;;;;;;;5038787;28;20037;-76
2022/09/27 05:28:31;;;;;;;5.25;2.75;;;;;;;;;;5027976;28;20024;-75
2022/09/27 05:30:57;;;;;;;7.15;2.97;;;;;;;;;;5026498;28;20036;-76
2022/09/27 05:33:27;;;;;;;5.00;3.47;;;;;;;;;;5034589;28;20051;-77
2022/09/27 05:35:54;;;;;;;4.63;2.90;;;;;;;;;;5032476;28;20029;-75
2022/09/27 05:38:20;;;;;;;4.47;2.90;;;;;;;;;;5039206;28;20056;-77
2022/09/27 05:40:49;;;;;;;7.07;3.22;;;;;;;;;;5042730;28;20029;-77
2022/09/27 05:43:16;;;;;;;10.35;3.20;;;;;;;;;;5041584;28;20029;-77
2022/09/27 05:45:42;;;;;;;7.80;5.53;;;;;;;;;;5034485;28;20033;-77
2022/09/27 05:48:09;;;;;;;6.45;3.72;;;;;;;;;;5039408;28;20128;-77
2022/09/27 05:50:35;;;;;;;5.07;3.15;;;;;;;;;;5025827;28;20560;-79
2022/09/27 05:53:00;;;;;;;9.98;3.85;;;;;;;;;;5044826;28;20048;-82
2022/09/27 05:55:26;;;;;;;4.10;3.53;;;;;;;;;;5047688;28;20040;-75
2022/09/27 05:58:04;;;;;;;11.43;6.60;;;;;;;;;;5020182;28;20040;-76
2022/09/27 06:00:30;;;;;;;7.47;4.75;;;;;;;;;;5027184;28;20024;-80
2022/09/27 06:03:00;;;;;;;6.68;3.28;;;;;;;;;;5032467;28;20029;-79
2022/09/27 06:05:28;;;;;;;7.70;2.80;;;;;;;;;;5035628;28;20022;-76
2022/09/27 06:07:59;;;;;;;5.97;2.60;;;;;;;;;;5032629;28;20389;-77
2022/09/27 06:10:25;;;;;;;5.78;2.35;;;;;;;;;;5018742;28;20307;-76
2022/09/27 06:12:51;;;;;;;3.63;2.58;;;;;;;;;;5031372;28;20059;-77
2022/09/27 06:15:18;;;;;;;5.03;2.83;;;;;;;;;;5017283;28;20029;-76
2022/09/27 06:17:43;;;;;;;4.30;2.40;;;;;;;;;;5014010;28;20478;-76
2022/09/27 06:20:09;;;;;;;6.90;2.63;;;;;;;;;;5009888;28;21407;-75
2022/09/27 06:22:35;;;;;;;4.18;2.05;;;;;;;;;;5028631;28;20036;-75
2022/09/27 06:25:02;;;;;;;6.15;3.40;;;;;;;;;;5016791;28;20025;-74
2022/09/27 06:27:31;;;;;;;7.03;2.70;;;;;;;;;;5031398;28;20079;-76
2022/09/27 06:29:56;;;;;;;4.03;2.45;;;;;;;;;;5035972;28;20154;-75
2022/09/27 06:32:22;;;;;;;4.68;2.67;;;;;;;;;;5032398;28;20034;-76
2022/09/27 06:34:47;;;;;;;7.85;2.88;;;;;;;;;;5029797;28;20465;-75
2022/09/27 06:37:14;;;;;;;3.53;2.25;;;;;;;;;;5031695;28;20102;-75
2022/09/27 06:39:40;;;;;;;5.30;2.47;;;;;;;;;;5008570;28;20052;-77
2022/09/27 06:42:06;;;;;;;3.67;2.45;;;;;;;;;;5026164;28;20414;-76
2022/09/27 06:44:31;;;;;;;4.20;2.03;;;;;;;;;;5026538;28;21153;-76
2022/09/27 06:46:57;;;;;;;4.50;2.35;;;;;;;;;;5030764;28;20021;-75
2022/09/27 06:49:24;;;;;;;4.65;2.45;;;;;;;;;;5030450;28;20051;-77
2022/09/27 06:51:49;;;;;;;9.18;3.20;;;;;;;;;;5004974;28;20032;-75
2022/09/27 06:54:15;;;;;;;4.25;2.65;;;;;;;;;;5028506;28;20021;-75
2022/09/27 06:56:40;;;;;;;4.65;2.67;;;;;;;;;;5021332;28;20521;-74
2022/09/27 07:01:52;;;;;;;4.55;2.10;;;;;;;;;;5028922;28;20241;-74
2022/09/27 07:04:20;;;;;;;12.23;2.40;;;;;;;;;;5019690;28;20036;-76
2022/09/27 07:06:45;;;;;;;3.22;2.28;;;;;;;;;;5027867;28;20101;-79
2022/09/27 07:09:12;;;;;;;3.70;2.25;;;;;;;;;;5021717;28;20032;-76
2022/09/27 07:11:37;;;;;;;4.20;1.75;;;;;;;;;;5026140;28;20036;-78
2022/09/27 07:14:07;;;;;;;5.63;4.00;;;;;;;;;;5030775;28;20042;-77
2022/09/27 07:16:33;;;;;;;1.67;1.38;;;;;;;;;;5029784;28;20040;-76
2022/09/27 07:18:59;;;;;;;3.40;2.00;;;;;;;;;;5037912;28;20037;-76
2022/09/27 07:21:25;;;;;;;6.22;2.47;;;;;;;;;;5020487;28;20024;-77
2022/09/27 07:23:51;;;;;;;5.22;2.17;;;;;;;;;;5025095;28;20037;-78
2022/09/27 07:26:16;;;;;;;4.03;2.13;;;;;;;;;;5036235;28;20135;-76
2022/09/27 07:28:43;;;;;;;4.80;3.35;;;;;;;;;;5033259;28;20033;-78
2022/09/27 07:31:09;;;;;;;2.85;2.00;;;;;;;;;;5033253;28;20729;-77
2022/09/27 07:33:34;;;;;;;8.25;1.92;;;;;;;;;;5041854;28;20037;-76
2022/09/27 07:36:06;;;;;;;3.92;2.30;;;;;;;;;;5034414;28;20029;-76
2022/09/27 07:38:31;;;;;;;4.50;1.60;;;;;;;;;;5037700;28;20045;-78
2022/09/27 07:40:58;;;;;;;5.15;2.05;;;;;;;;;;5031603;28;20040;-78
2022/09/27 07:43:23;;;;;;;3.72;1.90;;;;;;;;;;5033206;28;20349;-77
2022/09/27 07:45:49;;;;;;;3.03;2.15;;;;;;;;;;5024046;28;20025;-76
2022/09/27 07:48:16;;;;;;;3.30;1.75;;;;;;;;;;5032090;28;20033;-76
2022/09/27 07:50:41;;;;;;;4.05;1.50;;;;;;;;;;5026983;28;20052;-75
2022/09/27 07:53:11;;;;;;;2.28;2.03;;;;;;;;;;5036789;28;20110;-76
2022/09/27 07:55:37;;;;;;;2.45;1.40;;;;;;;;;;5035351;28;20115;-77
2022/09/27 07:58:10;;;;;;;2.00;1.25;;;;;;;;;;5037696;28;20099;-78
2022/09/27 08:00:39;;;;;;;2.10;1.42;;;;;;;;;;5035082;28;20033;-76
2022/09/27 08:03:08;;;;;;;0.82;0.73;;;;;;;;;;5036520;28;20029;-76
2022/09/27 08:05:35;;;;;;;1.48;1.00;;;;;;;;;;5019568;28;20052;-76
2022/09/27 08:08:02;;;;;;;2.15;1.20;;;;;;;;;;5035393;28;20125;-76
2022/09/27 08:10:32;;;;;;;2.95;1.40;;;;;;;;;;5042252;28;20040;-76
2022/09/27 08:13:02;;;;;;;1.80;1.20;;;;;;;;;;5020448;28;20060;-76
2022/09/27 08:15:29;;;;;;;2.25;1.02;;;;;;;;;;5022744;28;20128;-78
2022/09/27 08:18:01;;;;;;;1.48;1.00;;;;;;;;;;5034555;28;20026;-78
2022/09/27 08:20:26;;;;;;;;;;;;;;;;;;5039404;28;20070;-77
2022/09/27 08:22:52;;;;;;;1.38;1.00;;;;;;;;;;5030985;28;19917;-77
2022/09/27 08:25:18;;;;;;;2.10;1.00;;;;;;;;;;5030003;28;20091;-77
2022/09/27 08:27:53;;;;;;;1.40;1.10;;;;;;;;;;5034688;28;20037;-76
2022/09/27 08:30:19;;;;;;;0.90;0.90;;;;;;;;;;5030122;28;20556;-79
2022/09/27 08:32:44;;;;;;;2.08;0.82;;;;;;;;;;5029900;28;20088;-76
2022/09/27 08:35:10;;;;;;;2.67;0.90;;;;;;;;;;5024917;28;20477;-76
2022/09/27 08:37:36;;;;;;;3.13;0.85;;;;;;;;;;5034100;28;20037;-78
2022/09/27 08:40:02;;;;;;;1.15;0.77;;;;;;;;;;5034759;28;20049;-77
2022/09/27 08:42:59;;;;;;;2.25;0.82;;;;;;;;;;5023525;28;20029;-78
2022/09/27 08:45:33;;;;;;;2.47;1.00;;;;;;;;;;5028643;28;20029;-77
2022/09/27 08:48:01;;;;;;;1.65;0.80;;;;;;;;;;5034955;28;20025;-77
2022/09/27 08:50:30;;;;;;;1.00;0.50;;;;;;;;;;5022646;28;20079;-77
2022/09/27 08:53:10;;;;;;;2.95;1.38;;;;;;;;;;5023443;28;20628;-76
2022/09/27 08:55:40;;;;;;;3.78;2.05;;;;;;;;;;5038171;28;20459;-77
2022/09/27 08:58:26;;;;;;;2.58;1.80;;;;;;;;;;5033082;28;20388;-77
2022/09/27 09:00:57;;;;;;;3.90;1.67;;;;;;;;;;5038569;28;20399;-77
2022/09/27 09:03:32;;;;;;;0.90;0.90;;;;;;;;;;5035919;28;20052;-77
2022/09/27 09:06:07;;;;;;;3.47;0.80;;;;;;;;;;5034939;28;20457;-77
2022/09/27 09:08:51;;;;;;;2.95;0.98;;;;;;;;;;5033702;28;20033;-76
2022/09/27 09:14:57;;;;;;;3.20;0.93;;;;;;;;;;5038265;28;20068;-75
2022/09/27 09:17:41;;;;;;;5.82;1.13;;;;;;;;;;5032056;28;20037;-78
2022/09/27 09:20:30;;;;;;;4.97;1.38;;;;;;;;;;5048449;28;20033;-78
2022/09/27 09:23:14;;;;;;;4.13;1.00;;;;;;;;;;5027243;28;20033;-77
2022/09/27 09:26:09;;;;;;;4.35;1.00;;;;;;;;;;5031434;28;20029;-76
2022/09/27 09:28:50;;;;;;;2.70;1.17;;;;;;;;;;5032610;28;20040;-77
2022/09/27 09:31:28;;;;;;;1.17;0.73;;;;;;;;;;5028642;28;20040;-77
2022/09/27 09:34:03;;;;;;;0.52;0.43;;;;;;;;;;5031120;28;20025;-77
2022/09/27 09:36:36;;;;;;;2.28;0.70;;;;;;;;;;5037819;28;20102;-78
2022/09/27 09:39:07;;;;;;;1.17;0.70;;;;;;;;;;5020551;28;20068;-78
2022/09/27 09:41:45;;;;;;;1.23;0.70;;;;;;;;;;5025878;28;20132;-78
2022/09/27 09:44:20;;;;;;;2.65;0.73;;;;;;;;;;5030043;28;20029;-78
2022/09/27 09:46:49;;;;;;;2.10;0.70;;;;;;;;;;5027627;28;20029;-76
2022/09/27 09:49:36;;;;;;;2.80;0.80;;;;;;;;;;5026965;28;20375;-77
2022/09/27 09:52:14;;;;;;;2.53;0.70;;;;;;;;;;5023391;28;20091;-76
2022/09/27 09:54:52;;;;;;;2.55;0.77;;;;;;;;;;5018700;28;20037;-78
2022/09/27 09:57:29;;;;;;;0.98;0.70;;;;;;;;;;5035070;28;20034;-77
2022/09/27 10:00:12;;;;;;;1.40;0.77;;;;;;;;;;5014931;28;20033;-79
2022/09/27 10:02:40;;;;;;;1.77;0.70;;;;;;;;;;5008388;28;20095;-76
2022/09/27 10:05:09;;;;;;;5.60;1.00;;;;;;;;;;5010063;28;20029;-78
2022/09/27 10:07:38;;;;;;;0.85;0.40;;;;;;;;;;5012052;28;20045;-79
2022/09/27 10:10:05;;;;;;;0.65;0.60;;;;;;;;;;5035534;28;20025;-80
2022/09/27 10:12:31;;;;;;;0.85;0.50;;;;;;;;;;5024395;28;20072;-80
2022/09/27 10:15:01;;;;;;;0.40;0.40;;;;;;;;;;5026742;28;20122;-79
2022/09/27 10:17:41;;;;;;;0.52;0.30;;;;;;;;;;5017414;28;20702;-77
2022/09/27 10:20:13;;;;;;;1.38;0.40;;;;;;;;;;5025966;28;20087;-77
2022/09/27 10:22:44;;;;;;;4.07;0.45;;;;;;;;;;5019627;28;20037;-80
2022/09/27 10:25:10;;;;;;;0.85;0.40;;;;;;;;;;5027296;28;20486;-79
2022/09/27 10:27:42;;;;;;;0.68;0.50;;;;;;;;;;5014017;28;20040;-78
2022/09/27 10:30:31;;;;;;;0.75;0.38;;;;;;;;;;5037686;28;20025;-77
2022/09/27 10:33:05;;;;;;;0.80;0.60;;;;;;;;;;5026169;28;20571;-78
2022/09/27 10:35:38;;;;;;;1.38;0.52;;;;;;;;;;5008495;28;20034;-79
2022/09/27 10:38:21;;;;;;;1.02;0.47;;;;;;;;;;5016818;28;20018;-78
2022/09/27 10:40:51;;;;;;;3.50;0.43;;;;;;;;;;5031677;28;20037;-76
2022/09/27 10:43:25;;;;;;;0.88;0.60;;;;;;;;;;5014238;28;20037;-78
2022/09/27 10:46:18;;;;;;;1.23;0.40;;;;;;;;;;5030425;28;20526;-77
2022/09/27 10:48:44;;;;;;;0.57;0.35;;;;;;;;;;5024605;28;20056;-77
2022/09/27 10:51:30;;;;;;;0.98;0.40;;;;;;;;;;5029903;28;20029;-77
2022/09/27 10:54:00;;;;;;;0.55;0.50;;;;;;;;;;5030328;28;20095;-76
2022/09/27 10:56:30;;;;;;;2.88;0.50;;;;;;;;;;5027704;28;20029;-78
2022/09/27 10:58:58;;;;;;;0.40;0.30;;;;;;;;;;5035800;28;20029;-78
2022/09/27 11:01:25;;;;;;;1.05;0.35;;;;;;;;;;5012941;28;20057;-78
2022/09/27 11:03:57;;;;;;;0.95;0.30;;;;;;;;;;5031583;28;20033;-77
2022/09/27 11:06:24;;;;;;;1.25;0.32;;;;;;;;;;5028893;28;20090;-77
2022/09/27 11:08:53;;;;;;;0.98;0.70;;;;;;;;;;5032919;28;20318;-78
2022/09/27 11:11:27;;;;;;;0.90;0.60;;;;;;;;;;5027568;28;20120;-78
2022/09/27 11:14:06;;;;;;;2.33;0.60;;;;;;;;;;5030221;28;20095;-76
2022/09/27 11:17:02;;;;;;;4.85;0.68;;;;;;;;;;5029594;28;20508;-77
2022/09/27 11:19:40;;;;;;;1.67;0.57;;;;;;;;;;5033566;28;20028;-79
2022/09/27 11:22:32;;;;;;;1.05;0.52;;;;;;;;;;5035307;28;20056;-76
2022/09/27 11:25:06;;;;;;;1.05;0.50;;;;;;;;;;5032261;28;20538;-78
2022/09/27 11:27:54;;;;;;;1.98;0.38;;;;;;;;;;5031296;28;20116;-78
2022/09/27 11:30:21;;;;;;;1.65;0.43;;;;;;;;;;5033311;28;20299;-79
2022/09/27 11:33:14;;;;;;;1.48;0.40;;;;;;;;;;5030337;28;20095;-78
2022/09/27 11:36:12;;;;;;;0.73;0.50;;;;;;;;;;5039017;28;20041;-78
2022/09/27 11:38:55;;;;;;;0.98;0.50;;;;;;;;;;5031604;28;20056;-77
2022/09/27 11:41:54;;;;;;;1.98;0.70;;;;;;;;;;5031849;28;20071;-77
2022/09/27 11:44:31;;;;;;;0.68;0.30;;;;;;;;;;4969318;28;20076;-77
2022/09/27 11:47:02;;;;;;;0.40;0.40;;;;;;;;;;5030539;28;20033;-77
2022/09/27 11:49:43;;;;;;;1.00;0.55;;;;;;;;;;5022869;28;20124;-77
2022/09/27 11:52:33;;;;;;;1.08;0.50;;;;;;;;;;5024034;28;20120;-77
2022/09/27 11:55:01;;;;;;;1.52;0.57;;;;;;;;;;5036679;28;20040;-77
2022/09/27 11:57:39;;;;;;;2.03;1.08;;;;;;;;;;5033172;28;20033;-78
2022/09/27 12:00:25;;;;;;;2.03;0.70;;;;;;;;;;5028991;28;20079;-76
2022/09/27 12:03:13;;;;;;;1.70;0.93;;;;;;;;;;5025564;28;20490;-77
2022/09/27 12:05:54;;;;;;;6.07;3.90;;;;;;;;;;5033790;28;20121;-78
2022/09/27 12:08:31;;;;;;;2.08;0.70;;;;;;;;;;5032398;28;20517;-78
2022/09/27 12:11:04;;;;;;;0.93;0.40;;;;;;;;;;5036474;28;20021;-77
2022/09/27 12:13:44;;;;;;;0.40;0.25;;;;;;;;;;5052912;28;20045;-78
2022/09/27 12:16:14;;;;;;;0.60;0.28;;;;;;;;;;5041961;28;20045;-77
2022/09/27 12:18:40;;;;;;;2.17;0.40;;;;;;;;;;5038110;28;20035;-77
2022/09/27 12:21:09;;;;;;;5.35;1.17;;;;;;;;;;5037770;28;20091;-78
2022/09/27 12:23:48;;;;;;;2.30;0.43;;;;;;;;;;5038506;28;20409;-76
2022/09/27 12:26:28;;;;;;;7.80;1.92;;;;;;;;;;5042574;28;20029;-77
2022/09/27 12:29:15;;;;;;;0.65;0.40;;;;;;;;;;5038885;28;20025;-77
2022/09/27 12:31:46;;;;;;;0.63;0.20;;;;;;;;;;5044890;28;20433;-79
2022/09/27 12:34:37;;;;;;;2.28;0.50;;;;;;;;;;5018599;28;20033;-78
2022/09/27 12:37:17;;;;;;;1.55;0.55;;;;;;;;;;5050458;28;20029;-76
2022/09/27 12:40:01;;;;;;;2.05;0.50;;;;;;;;;;5053574;28;20040;-77
2022/09/27 12:42:41;;;;;;;1.95;1.55;;;;;;;;;;5040267;28;20048;-77
2022/09/27 12:45:15;;;;;;;0.40;0.40;;;;;;;;;;5032385;28;20028;-77
2022/09/27 12:48:16;;;;;;;4.22;0.60;;;;;;;;;;5036417;28;20811;-77
2022/09/27 12:50:58;;;;;;;2.20;0.70;;;;;;;;;;5034992;28;20071;-77
2022/09/27 12:53:37;;;;;;;3.85;0.50;;;;;;;;;;5022922;28;20051;-78
2022/09/27 12:56:18;;;;;;;3.08;1.30;;;;;;;;;;5026840;28;20036;-77
2022/09/27 12:59:01;;;;;;;0.40;0.30;;;;;;;;;;5038887;28;20123;-76
2022/09/27 13:01:35;;;;;;;17.05;2.97;;;;;;;;;;5026968;28;20055;-78
2022/09/27 13:04:43;;;;;;;0.65;0.40;;;;;;;;;;5033218;28;20044;-77
2022/09/27 13:07:23;;;;;;;1.45;0.40;;;;;;;;;;5044281;28;20060;-76
2022/09/27 13:10:00;;;;;;;1.77;0.50;;;;;;;;;;5047049;28;20030;-77
2022/09/27 13:12:29;;;;;;;0.55;0.28;;;;;;;;;;5029753;28;20034;-78
2022/09/27 13:15:22;;;;;;;9.88;2.95;;;;;;;;;;5039385;28;20049;-77
2022/09/27 13:18:00;;;;;;;6.43;1.27;;;;;;;;;;5029075;28;20047;-75
2022/09/27 13:20:35;;;;;;;3.33;0.50;;;;;;;;;;5035074;28;20099;-78
2022/09/27 13:23:19;;;;;;;1.73;0.25;;;;;;;;;;5046325;28;20056;-78
2022/09/27 13:25:58;;;;;;;0.95;0.30;;;;;;;;;;5046635;28;20040;-78
2022/09/27 13:28:36;;;;;;;7.50;0.70;;;;;;;;;;5032531;28;20187;-77
2022/09/27 13:31:10;;;;;;;9.25;2.03;;;;;;;;;;5034758;28;20041;-76
2022/09/27 13:33:46;;;;;;;0.20;0.20;;;;;;;;;;5034625;28;20033;-78
2022/09/27 13:36:24;;;;;;;2.63;0.73;;;;;;;;;;5024255;28;20040;-78
2022/09/27 13:39:12;;;;;;;0.15;0.13;;;;;;;;;;5033869;28;20057;-77
2022/09/27 13:41:44;;;;;;;8.40;1.42;;;;;;;;;;5023878;28;20033;-78
2022/09/27 13:44:39;;;;;;;19.15;3.20;;;;;;;;;;5031801;28;20061;-79
2022/09/27 13:47:25;;;;;;;25.77;4.13;;;;;;;;;;5033799;28;20025;-77
2022/09/27 13:50:15;;;;;;;1.58;0.88;;;;;;;;;;5034584;28;20437;-76
2022/09/27 13:52:45;;;;;;;3.03;0.75;;;;;;;;;;5033031;28;20143;-77
2022/09/27 13:55:35;;;;;;;4.32;1.25;;;;;;;;;;5035994;28;21338;-79
2022/09/27 13:58:23;;;;;;;4.20;1.27;;;;;;;;;;5041421;28;20112;-78
2022/09/27 14:00:53;;;;;;;1.92;0.40;;;;;;;;;;5024928;28;20045;-79
2022/09/27 14:03:30;;;;;;;0.28;0.20;;;;;;;;;;5028407;28;20121;-79
2022/09/27 14:06:07;;;;;;;1.10;0.35;;;;;;;;;;5033001;28;20040;-77
2022/09/27 14:08:38;;;;;;;3.83;0.90;;;;;;;;;;5023635;28;20029;-77
2022/09/27 14:11:10;;;;;;;;;;;;;;;;;;5024576;28;20044;-77
2022/09/27 14:13:37;;;;;;;2.30;0.30;;;;;;;;;;5031839;28;19978;-76
2022/09/27 14:16:04;;;;;;;2.90;0.60;;;;;;;;;;5023418;28;20033;-77
2022/09/27 14:18:32;;;;;;;1.20;0.50;;;;;;;;;;5041471;28;20116;-78
2022/09/27 14:21:32;;;;;;;1.75;1.05;;;;;;;;;;5035452;28;20025;-78
2022/09/27 14:24:26;;;;;;;1.17;0.30;;;;;;;;;;5011700;28;20115;-76
2022/09/27 14:27:21;;;;;;;1.75;0.38;;;;;;;;;;5032888;28;20037;-78
2022/09/27 14:29:52;;;;;;;0.32;0.32;;;;;;;;;;5033026;28;20124;-77
2022/09/27 14:32:22;;;;;;;0.68;0.40;;;;;;;;;;5034108;28;20064;-78
2022/09/27 14:37:59;;;;;;;0.25;0.25;;;;;;;;;;5032442;28;20044;-76
2022/09/27 14:40:24;;;;;;;0.73;0.40;;;;;;;;;;5032671;28;20033;-77
2022/09/27 14:42:55;;;;;;;1.65;0.40;;;;;;;;;;5033654;28;20393;-76
2022/09/27 14:45:26;;;;;;;0.93;0.43;;;;;;;;;;5029418;28;20028;-76
2022/09/27 14:47:52;;;;;;;0.57;0.40;;;;;;;;;;5025162;28;20041;-76
2022/09/27 14:50:18;;;;;;;0.68;0.30;;;;;;;;;;5031760;28;20029;-75
2022/09/27 14:52:43;;;;;;;2.45;0.30;;;;;;;;;;5038991;28;20144;-77
2022/09/27 14:55:18;;;;;;;2.97;0.50;;;;;;;;;;5032519;28;20454;-75
2022/09/27 14:57:56;;;;;;;1.27;0.52;;;;;;;;;;5032561;28;20228;-76
2022/09/27 15:00:31;;;;;;;1.50;0.60;;;;;;;;;;5032670;28;20143;-76
2022/09/27 15:02:59;;;;;;;0.75;0.60;;;;;;;;;;5034520;28;20485;-77
2022/09/27 15:05:28;;;;;;;0.52;0.50;;;;;;;;;;5025919;28;20033;-76
2022/09/27 15:07:55;;;;;;;4.32;1.27;;;;;;;;;;5032485;28;20132;-78
2022/09/27 15:10:26;;;;;;;1.08;0.55;;;;;;;;;;5033746;28;20055;-76
2022/09/27 15:12:58;;;;;;;2.38;0.73;;;;;;;;;;5038906;28;20334;-75
2022/09/27 15:15:30;;;;;;;2.05;0.88;;;;;;;;;;5030349;28;20108;-76
2022/09/27 15:17:55;;;;;;;14.98;2.60;;;;;;;;;;5031008;28;20024;-78
2022/09/27 15:20:27;;;;;;;0.57;0.43;;;;;;;;;;5034795;28;20043;-76
2022/09/27 15:22:54;;;;;;;3.88;1.08;;;;;;;;;;5034218;28;20068;-77
2022/09/27 15:25:36;;;;;;;4.60;0.77;;;;;;;;;;5033402;28;20137;-76
2022/09/27 15:28:15;;;;;;;2.90;0.60;;;;;;;;;;5033354;28;20086;-75
2022/09/27 15:31:02;;;;;;;4.43;0.73;;;;;;;;;;5027848;28;20033;-77